Ivan Papanin — UCJE — position and weather

sailwx.info

Track history (hours):
 
Tides and Currents Weather Stations Pressure Air Temp Water Temp Dewpoint Dewpoint Depression Visibility Wind Speed Wind Dir Waves Ship Positions

Ivan Papanin

Last reported at 2015-Apr-28 12:33 UTC. Time now 2015-May-06 03:23 UTC.
Position N 58°43' W 005°26'.

Length 166 m; beam 22 m.

Type: Cargo ship. MMSI: 273137200.

Date/timePositionNaut miles runAvg speedWind from/ knotsBaromVisibWave heightAir tempDewpointWater temp
2015-Apr-28 12:33N 58°43' W 005°26'1413.9
2015-Apr-28 11:33N 58°29' W 005°31'1313.4
2015-Apr-28 10:33N 58°17' W 005°38'1414.0
2015-Apr-28 09:34N 58°05' W 005°52'24112.7
2015-Apr-27 14:33N 54°48' W 010°04'1312.6
2015-Apr-27 13:33N 54°37' W 010°14'1412.5
2015-Apr-27 12:27N 54°24' W 010°25'1112.7
2015-Apr-27 11:33N 54°14' W 010°34'1211.8
2015-Apr-27 10:33N 54°03' W 010°39'1111.3
2015-Apr-27 09:33N 53°51' W 010°42'1111.4
2015-Apr-27 08:33N 53°40' W 010°45'1312.4
2015-Apr-27 07:32N 53°28' W 010°48'8013.3
2015-Apr-27 01:33N 52°09' W 011°07'1813.6
2015-Apr-27 00:12N 51°51' W 011°12'  
2015-Apr-18 22:21N 10°14' W 016°36'4414.4
2015-Apr-18 19:20N 09°37' W 016°13'2714.5
2015-Apr-18 17:28N 09°14' W 015°58'  
Track history (hours):
 
Tides and Currents Weather Stations Pressure Air Temp Water Temp Dewpoint Dewpoint Depression Visibility Wind Speed Wind Dir Waves Ship Positions

Ivan Papanin

Last reported at 2015-Apr-28 12:33 UTC. Time now 2015-May-06 03:23 UTC.
Position N 58°43' W 005°26'.

Length 166 m; beam 22 m.

Type: Cargo ship. MMSI: 273137200.

Date/timePositionNaut miles runAvg speedWind from/ knotsBaromVisibWave heightAir tempDewpointWater temp
2015-Apr-28 12:33N 58°43' W 005°26'1413.9
2015-Apr-28 11:33N 58°29' W 005°31'1313.4
2015-Apr-28 10:33N 58°17' W 005°38'1414.0
2015-Apr-28 09:34N 58°05' W 005°52'24112.7
2015-Apr-27 14:33N 54°48' W 010°04'1312.6
2015-Apr-27 13:33N 54°37' W 010°14'1412.5
2015-Apr-27 12:27N 54°24' W 010°25'1112.7
2015-Apr-27 11:33N 54°14' W 010°34'1211.8
2015-Apr-27 10:33N 54°03' W 010°39'1111.3
2015-Apr-27 09:33N 53°51' W 010°42'1111.4
2015-Apr-27 08:33N 53°40' W 010°45'1312.4
2015-Apr-27 07:32N 53°28' W 010°48'8013.3
2015-Apr-27 01:33N 52°09' W 011°07'1813.6
2015-Apr-27 00:12N 51°51' W 011°12'  
2015-Apr-18 22:21N 10°14' W 016°36'4414.4
2015-Apr-18 19:20N 09°37' W 016°13'2714.5
2015-Apr-18 17:28N 09°14' W 015°58'  

Dump ship's entire track history